Time;durP1;ratioP1;P1;durP2;ratioP2;P2;SDS_P1;SDS_P2;PMS_P1;PMS_P2;Temp;Humidity;BMP_temperature;BMP_pressure;BME280_temperature;BME280_humidity;BME280_pressure;Samples;Min_cycle;Max_cycle;Signal;HPM_P1;HPM_P2
2022/06/02 00:00:18;;;;;;;5.43;3.50;;;;;;;;;;4995242;28;20707;-87
2022/06/02 00:03:38;;;;;;;4.20;3.80;;;;;;;;;;4985516;28;20193;-87
2022/06/02 00:06:50;;;;;;;4.97;4.20;;;;;;;;;;5003081;28;20193;-90
2022/06/02 00:10:25;;;;;;;4.20;3.80;;;;;;;;;;5026172;23;20586;-85
2022/06/02 00:13:48;;;;;;;4.77;4.00;;;;;;;;;;4953110;28;20203;-85
2022/06/02 00:16:59;;;;;;;5.60;3.80;;;;;;;;;;4976827;28;20190;-85
2022/06/02 00:20:14;;;;;;;4.40;4.00;;;;;;;;;;4988234;28;20198;-85
2022/06/02 00:24:03;;;;;;;4.10;3.70;;;;;;;;;;4983825;28;20221;-85
2022/06/02 00:27:47;;;;;;;8.20;3.67;;;;;;;;;;4975581;28;20199;-85
2022/06/02 00:31:17;;;;;;;6.67;4.17;;;;;;;;;;4976435;28;20222;-84
2022/06/02 00:34:36;;;;;;;4.43;4.03;;;;;;;;;;4953320;28;20183;-85
2022/06/02 00:37:57;;;;;;;5.53;3.83;;;;;;;;;;4981350;28;20194;-84
2022/06/02 00:41:15;;;;;;;4.27;3.87;;;;;;;;;;4994404;28;20558;-85
2022/06/02 00:44:39;;;;;;;6.67;3.67;;;;;;;;;;4983331;28;20183;-85
2022/06/02 00:48:17;;;;;;;5.20;4.10;;;;;;;;;;4964535;28;20195;-85
2022/06/02 00:51:37;;;;;;;5.87;3.70;;;;;;;;;;4952335;28;20223;-85
2022/06/02 00:58:36;;;;;;;4.87;4.37;;;;;;;;;;4964543;28;20179;-84
2022/06/02 01:01:40;;;;;;;5.50;4.10;;;;;;;;;;4974882;28;20231;-85
2022/06/02 01:04:44;;;;;;;5.03;4.57;;;;;;;;;;4953270;28;20178;-85
2022/06/02 01:08:33;;;;;;;6.17;4.70;;;;;;;;;;4963867;28;20171;-85
2022/06/02 01:11:40;;;;;;;5.07;4.47;;;;;;;;;;4952706;28;20219;-85
2022/06/02 01:14:47;;;;;;;5.53;4.53;;;;;;;;;;4963840;28;20183;-85
2022/06/02 01:18:01;;;;;;;7.60;4.03;;;;;;;;;;4952533;28;20542;-85
2022/06/02 01:21:37;;;;;;;5.57;4.20;;;;;;;;;;4963793;28;20570;-84
2022/06/02 01:25:00;;;;;;;6.43;4.63;;;;;;;;;;4974566;28;20195;-85
2022/06/02 01:28:32;;;;;;;4.37;3.97;;;;;;;;;;4975165;28;20340;-84
2022/06/02 01:31:58;;;;;;;6.13;4.40;;;;;;;;;;4974029;28;20214;-85
2022/06/02 01:35:29;;;;;;;5.93;4.57;;;;;;;;;;4974189;28;20523;-86
2022/06/02 01:38:58;;;;;;;4.87;4.37;;;;;;;;;;4974439;28;20179;-86
2022/06/02 01:42:26;;;;;;;5.10;4.27;;;;;;;;;;4951803;28;20227;-85
2022/06/02 01:46:07;;;;;;;4.87;4.30;;;;;;;;;;4978928;28;20194;-86
2022/06/02 01:49:57;;;;;;;5.67;4.60;;;;;;;;;;4973726;28;20194;-85
2022/06/02 01:53:33;;;;;;;5.90;5.20;;;;;;;;;;4975126;28;20182;-85
2022/06/02 01:57:15;;;;;;;5.47;4.47;;;;;;;;;;4986306;28;20179;-85
2022/06/02 02:00:22;;;;;;;6.33;4.47;;;;;;;;;;4974670;28;20209;-86
2022/06/02 02:03:34;;;;;;;5.43;4.53;;;;;;;;;;4985962;28;20210;-85
2022/06/02 02:06:47;;;;;;;6.00;4.37;;;;;;;;;;4974975;28;20186;-85
2022/06/02 02:09:59;;;;;;;5.33;4.60;;;;;;;;;;4996632;28;20198;-87
2022/06/02 02:13:15;;;;;;;5.37;4.43;;;;;;;;;;4985728;28;20525;-88
2022/06/02 02:16:47;;;;;;;5.23;4.73;;;;;;;;;;4985894;28;20513;-87
2022/06/02 02:19:58;;;;;;;5.83;4.30;;;;;;;;;;4985793;28;20182;-88
2022/06/02 02:23:29;;;;;;;6.60;4.80;;;;;;;;;;4974841;28;20218;-87
2022/06/02 02:26:41;;;;;;;5.00;4.50;;;;;;;;;;4974880;28;20633;-87
2022/06/02 02:30:09;;;;;;;6.77;4.83;;;;;;;;;;4974343;28;20197;-87
2022/06/02 02:33:36;;;;;;;7.00;4.60;;;;;;;;;;4985592;28;20621;-87
2022/06/02 02:37:03;;;;;;;4.87;4.37;;;;;;;;;;4966113;28;20178;-87
2022/06/02 02:40:27;;;;;;;5.93;4.47;;;;;;;;;;4966120;28;20184;-87
2022/06/02 02:43:45;;;;;;;6.50;4.97;;;;;;;;;;4957860;28;20672;-87
2022/06/02 02:46:58;;;;;;;7.37;5.07;;;;;;;;;;4974282;28;20178;-87
2022/06/02 02:50:25;;;;;;;5.73;4.93;;;;;;;;;;4985022;28;20190;-87
2022/06/02 02:53:34;;;;;;;6.57;4.93;;;;;;;;;;4982378;28;20174;-86
2022/06/02 02:56:56;;;;;;;5.70;5.10;;;;;;;;;;4976985;28;20661;-87
2022/06/02 03:00:17;;;;;;;5.93;5.33;;;;;;;;;;4979500;28;20194;-87
2022/06/02 03:03:43;;;;;;;7.83;5.07;;;;;;;;;;4996057;28;20210;-86
2022/06/02 03:06:54;;;;;;;5.73;5.13;;;;;;;;;;4974212;28;20182;-86
2022/06/02 03:10:07;;;;;;;6.93;5.13;;;;;;;;;;4995668;28;20187;-86
2022/06/02 03:13:38;;;;;;;9.60;5.23;;;;;;;;;;4984969;28;20178;-86
2022/06/02 03:16:45;;;;;;;6.80;5.70;;;;;;;;;;4984777;28;20178;-87
2022/06/02 03:20:08;;;;;;;8.40;5.30;;;;;;;;;;4967114;28;20194;-87
2022/06/02 03:23:44;;;;;;;8.47;5.77;;;;;;;;;;4968731;28;20214;-87
2022/06/02 03:27:24;;;;;;;9.20;6.00;;;;;;;;;;4995242;28;20202;-86
2022/06/02 03:30:41;;;;;;;6.80;5.77;;;;;;;;;;4995571;28;20222;-86
2022/06/02 03:33:55;;;;;;;8.10;6.07;;;;;;;;;;4995391;28;20174;-86
2022/06/02 03:37:22;;;;;;;5.80;5.20;;;;;;;;;;4973205;28;20191;-87
2022/06/02 03:40:54;;;;;;;7.43;5.13;;;;;;;;;;4973241;28;20695;-87
2022/06/02 03:44:13;;;;;;;5.07;4.30;;;;;;;;;;4983915;28;20553;-87
2022/06/02 03:47:35;;;;;;;5.27;4.77;;;;;;;;;;4984787;28;20510;-87
2022/06/02 03:50:55;;;;;;;7.73;4.90;;;;;;;;;;4984041;28;20217;-87
2022/06/02 03:54:06;;;;;;;6.17;5.60;;;;;;;;;;4983284;28;20186;-87
2022/06/02 03:57:28;;;;;;;6.20;5.60;;;;;;;;;;4983969;28;20194;-87
2022/06/02 04:00:58;;;;;;;8.20;5.50;;;;;;;;;;4972677;28;20218;-88
2022/06/02 04:04:14;;;;;;;5.73;5.20;;;;;;;;;;4970234;28;20222;-86
2022/06/02 04:07:34;;;;;;;7.00;5.40;;;;;;;;;;4953423;28;20522;-86
2022/06/02 04:10:49;;;;;;;7.40;5.57;;;;;;;;;;4963849;28;20227;-86
2022/06/02 04:14:34;;;;;;;5.20;4.70;;;;;;;;;;4986620;28;20676;-86
2022/06/02 04:18:17;;;;;;;10.43;5.10;;;;;;;;;;4964122;28;20187;-85
2022/06/02 04:21:44;;;;;;;5.83;5.23;;;;;;;;;;4963838;28;20225;-85
2022/06/02 04:25:22;;;;;;;5.70;4.97;;;;;;;;;;4953515;28;20188;-85
2022/06/02 04:28:57;;;;;;;5.93;5.33;;;;;;;;;;4953537;28;20187;-85
2022/06/02 04:32:22;;;;;;;5.30;4.80;;;;;;;;;;4955637;28;20223;-85
2022/06/02 04:35:38;;;;;;;8.43;5.37;;;;;;;;;;4986871;28;20183;-84
2022/06/02 04:39:05;;;;;;;8.47;4.90;;;;;;;;;;4994553;28;20198;-84
2022/06/02 04:42:25;;;;;;;6.13;4.60;;;;;;;;;;4983808;28;20557;-84
2022/06/02 04:45:51;;;;;;;7.03;5.00;;;;;;;;;;4995270;28;20182;-84
2022/06/02 04:49:14;;;;;;;5.67;4.20;;;;;;;;;;4983249;28;20186;-84
2022/06/02 04:52:40;;;;;;;5.97;4.63;;;;;;;;;;4970298;28;20195;-84
2022/06/02 04:56:26;;;;;;;5.93;4.20;;;;;;;;;;4963681;28;20187;-84
2022/06/02 04:59:57;;;;;;;4.90;4.40;;;;;;;;;;4952733;28;20183;-84
2022/06/02 05:03:17;;;;;;;5.07;3.97;;;;;;;;;;4963084;28;20207;-84
2022/06/02 05:06:43;;;;;;;7.20;4.57;;;;;;;;;;4963359;28;20523;-84
2022/06/02 05:09:53;;;;;;;4.40;4.00;;;;;;;;;;4963775;28;20195;-84
2022/06/02 05:13:14;;;;;;;7.10;4.77;;;;;;;;;;4952089;28;20175;-83
2022/06/02 05:16:30;;;;;;;6.80;4.13;;;;;;;;;;4982008;28;20202;-83
2022/06/02 05:19:42;;;;;;;6.23;3.97;;;;;;;;;;4971311;28;20190;-83
2022/06/02 05:22:55;;;;;;;7.77;3.90;;;;;;;;;;4994226;28;20178;-83
2022/06/02 05:26:25;;;;;;;4.90;4.00;;;;;;;;;;4988734;28;20182;-83
2022/06/02 05:29:48;;;;;;;4.33;3.93;;;;;;;;;;4977629;28;20182;-83
2022/06/02 05:33:21;;;;;;;4.43;3.87;;;;;;;;;;4980416;28;20202;-84
2022/06/02 05:36:28;;;;;;;4.27;3.17;;;;;;;;;;4993548;28;20652;-82
2022/06/02 05:39:40;;;;;;;6.70;3.80;;;;;;;;;;4988394;28;20190;-83
2022/06/02 05:43:10;;;;;;;4.53;3.60;;;;;;;;;;4973131;28;20198;-83
2022/06/02 05:46:26;;;;;;;4.17;3.77;;;;;;;;;;4973077;28;20210;-83
2022/06/02 05:49:57;;;;;;;5.03;3.60;;;;;;;;;;4958194;28;20191;-82
2022/06/02 05:53:31;;;;;;;4.50;3.77;;;;;;;;;;4997469;28;20190;-82
2022/06/02 05:56:53;;;;;;;6.03;3.90;;;;;;;;;;4983632;28;20538;-83
2022/06/02 06:00:16;;;;;;;3.97;3.10;;;;;;;;;;4982423;28;20194;-85
2022/06/02 06:03:48;;;;;;;4.10;3.67;;;;;;;;;;4981994;28;20210;-83
2022/06/02 06:06:57;;;;;;;3.63;3.33;;;;;;;;;;4984007;28;20186;-84
2022/06/02 06:10:12;;;;;;;4.60;3.70;;;;;;;;;;4983925;28;20194;-83
2022/06/02 06:13:54;;;;;;;6.67;3.73;;;;;;;;;;5038535;23;20237;-85
2022/06/02 06:17:23;;;;;;;9.03;4.43;;;;;;;;;;5001902;28;20187;-84
2022/06/02 06:21:01;;;;;;;4.93;4.10;;;;;;;;;;4993899;28;20189;-85
2022/06/02 06:24:32;;;;;;;8.83;4.20;;;;;;;;;;4986772;28;20214;-86
2022/06/02 06:27:51;;;;;;;4.70;4.20;;;;;;;;;;4977587;28;20182;-84
2022/06/02 06:30:59;;;;;;;6.30;3.87;;;;;;;;;;4970156;28;20186;-84
2022/06/02 06:34:43;;;;;;;9.80;4.77;;;;;;;;;;4973157;28;20182;-85
2022/06/02 06:37:57;;;;;;;7.03;4.50;;;;;;;;;;4989282;28;20202;-85
2022/06/02 06:41:34;;;;;;;5.17;4.67;;;;;;;;;;4973440;28;20186;-85
2022/06/02 06:44:45;;;;;;;5.20;4.03;;;;;;;;;;4984681;28;20565;-85
2022/06/02 06:47:57;;;;;;;4.73;4.30;;;;;;;;;;5006633;28;20179;-85
2022/06/02 06:51:25;;;;;;;4.90;3.90;;;;;;;;;;4994489;28;20190;-85
2022/06/02 06:55:03;;;;;;;4.70;3.93;;;;;;;;;;4985315;28;20179;-85
2022/06/02 06:58:16;;;;;;;4.80;4.30;;;;;;;;;;4978086;28;20550;-86
2022/06/02 07:01:41;;;;;;;5.17;4.67;;;;;;;;;;4970546;28;20198;-85
2022/06/02 07:05:13;;;;;;;5.17;4.17;;;;;;;;;;4983348;28;20672;-83
2022/06/02 07:08:29;;;;;;;6.80;4.17;;;;;;;;;;4978765;28;20191;-86
2022/06/02 07:15:28;;;;;;;19.80;4.37;;;;;;;;;;4965089;28;20183;-86
2022/06/02 07:18:39;;;;;;;5.90;4.30;;;;;;;;;;4961169;28;20581;-85
2022/06/02 07:21:53;;;;;;;4.53;4.13;;;;;;;;;;4973206;28;20218;-85
2022/06/02 07:25:19;;;;;;;4.63;4.00;;;;;;;;;;4990365;28;20218;-86
2022/06/02 07:28:54;;;;;;;5.00;4.40;;;;;;;;;;4984470;28;20178;-85
2022/06/02 07:32:18;;;;;;;7.07;4.07;;;;;;;;;;4994219;28;20221;-86
2022/06/02 07:35:44;;;;;;;7.70;4.40;;;;;;;;;;4973021;28;20178;-85
2022/06/02 07:39:03;;;;;;;7.97;4.30;;;;;;;;;;4964607;28;20187;-85
2022/06/02 07:42:43;;;;;;;6.30;4.43;;;;;;;;;;4953147;28;20223;-85
2022/06/02 07:46:10;;;;;;;4.60;4.13;;;;;;;;;;4958466;28;20184;-86
2022/06/02 07:49:40;;;;;;;4.67;4.27;;;;;;;;;;4953621;28;20187;-82
2022/06/02 07:53:02;;;;;;;6.00;3.60;;;;;;;;;;4953283;28;20222;-85
2022/06/02 07:56:24;;;;;;;4.93;4.17;;;;;;;;;;4979906;28;20182;-83
2022/06/02 07:59:48;;;;;;;5.03;3.93;;;;;;;;;;4964172;28;20187;-83
2022/06/02 08:03:11;;;;;;;7.83;3.63;;;;;;;;;;4966305;28;20223;-83
2022/06/02 08:06:32;;;;;;;4.70;3.27;;;;;;;;;;4973569;28;20181;-82
2022/06/02 08:09:41;;;;;;;6.93;3.77;;;;;;;;;;4969052;28;20195;-84
2022/06/02 08:12:58;;;;;;;3.77;3.40;;;;;;;;;;4975348;28;20233;-84
2022/06/02 08:16:30;;;;;;;4.40;3.23;;;;;;;;;;4964658;28;20200;-84
2022/06/02 08:19:57;;;;;;;4.37;3.80;;;;;;;;;;4976886;28;20637;-84
2022/06/02 08:23:14;;;;;;;8.18;3.40;;;;;;;;;;4983300;28;20225;-83
2022/06/02 08:26:54;;;;;;;5.72;3.60;;;;;;;;;;4972582;28;20196;-84
2022/06/02 08:30:41;;;;;;;4.43;3.17;;;;;;;;;;4965606;28;20199;-84
2022/06/02 08:34:09;;;;;;;5.63;3.38;;;;;;;;;;4949923;28;20549;-86
2022/06/02 08:37:58;;;;;;;4.07;3.30;;;;;;;;;;4953030;28;20188;-86
2022/06/02 08:41:39;;;;;;;3.22;2.80;;;;;;;;;;4963848;28;20187;-87
2022/06/02 08:45:05;;;;;;;4.20;3.00;;;;;;;;;;4963598;28;20662;-86
2022/06/02 08:48:29;;;;;;;4.80;3.05;;;;;;;;;;4952648;28;20178;-86
2022/06/02 08:51:39;;;;;;;5.22;3.00;;;;;;;;;;4952380;28;20527;-86
2022/06/02 08:55:21;;;;;;;5.13;3.10;;;;;;;;;;4952068;28;20179;-86
2022/06/02 08:58:57;;;;;;;4.57;3.00;;;;;;;;;;4962755;28;20185;-86
2022/06/02 09:02:19;;;;;;;4.43;2.78;;;;;;;;;;4965586;28;20226;-87
2022/06/02 09:05:45;;;;;;;6.22;2.50;;;;;;;;;;4971927;28;20217;-87
2022/06/02 09:09:15;;;;;;;6.25;3.05;;;;;;;;;;4982800;28;20189;-86
2022/06/02 09:12:38;;;;;;;3.92;3.47;;;;;;;;;;4971134;28;20236;-86
2022/06/02 09:16:11;;;;;;;4.45;3.20;;;;;;;;;;4971696;28;20524;-86
2022/06/02 09:19:33;;;;;;;6.13;3.13;;;;;;;;;;4971992;28;20529;-86
2022/06/02 09:23:02;;;;;;;6.47;3.10;;;;;;;;;;4971346;28;20691;-87
2022/06/02 09:26:32;;;;;;;4.32;3.28;;;;;;;;;;4971448;28;20542;-86
2022/06/02 09:29:46;;;;;;;3.67;2.83;;;;;;;;;;4963523;28;20187;-87
2022/06/02 09:36:37;;;;;;;3.50;1.90;;;;;;;;;;4963925;28;20199;-88
2022/06/02 09:40:11;;;;;;;6.80;3.10;;;;;;;;;;4952167;28;20187;-88
2022/06/02 09:43:52;;;;;;;8.88;2.42;;;;;;;;;;4963242;28;20223;-88
2022/06/02 09:47:19;;;;;;;4.97;2.50;;;;;;;;;;4952064;28;20203;-88
2022/06/02 09:50:29;;;;;;;5.10;2.40;;;;;;;;;;4968597;28;20180;-88
2022/06/02 09:54:14;;;;;;;2.00;1.70;;;;;;;;;;4951724;28;20563;-88
2022/06/02 09:57:56;;;;;;;3.15;1.20;;;;;;;;;;4970271;28;20641;-87
2022/06/02 10:01:18;;;;;;;3.85;1.40;;;;;;;;;;4951831;28;20199;-87
2022/06/02 10:04:35;;;;;;;2.72;1.35;;;;;;;;;;4952028;28;20219;-87
2022/06/02 10:07:57;;;;;;;4.22;1.60;;;;;;;;;;4970342;28;20198;-88
2022/06/02 10:11:19;;;;;;;3.30;1.38;;;;;;;;;;4974424;28;20183;-88
2022/06/02 10:14:32;;;;;;;2.78;1.52;;;;;;;;;;4985649;28;20528;-87
2022/06/02 10:17:56;;;;;;;1.73;1.15;;;;;;;;;;4976472;28;20191;-87
2022/06/02 10:21:09;;;;;;;2.15;1.70;;;;;;;;;;4955211;28;20184;-87
2022/06/02 10:24:37;;;;;;;1.70;1.38;;;;;;;;;;4967849;28;20215;-88
2022/06/02 10:28:13;;;;;;;5.72;1.52;;;;;;;;;;4973227;28;20186;-85
2022/06/02 10:31:58;;;;;;;1.95;1.45;;;;;;;;;;4966016;28;20543;-84
2022/06/02 10:35:24;;;;;;;2.42;1.20;;;;;;;;;;4955482;28;20180;-87
2022/06/02 10:38:51;;;;;;;8.15;1.50;;;;;;;;;;4965801;28;20188;-86
2022/06/02 10:42:06;;;;;;;2.25;1.20;;;;;;;;;;4958732;28;20222;-86
2022/06/02 10:45:13;;;;;;;3.05;1.40;;;;;;;;;;4995728;28;20214;-87
2022/06/02 10:49:07;;;;;;;2.47;1.23;;;;;;;;;;4966341;28;20534;-87
2022/06/02 10:52:39;;;;;;;2.30;1.30;;;;;;;;;;4975890;28;20214;-89
2022/06/02 10:55:49;;;;;;;4.03;1.50;;;;;;;;;;4980277;28;20195;-89
2022/06/02 10:59:33;;;;;;;3.33;1.60;;;;;;;;;;4954467;28;20183;-88
2022/06/02 11:03:08;;;;;;;3.70;1.50;;;;;;;;;;4965349;28;20556;-88
2022/06/02 11:06:33;;;;;;;4.32;1.70;;;;;;;;;;4954569;28;20211;-86
2022/06/02 11:10:15;;;;;;;3.97;1.52;;;;;;;;;;4977413;28;20641;-87
2022/06/02 11:13:29;;;;;;;1.45;1.30;;;;;;;;;;4976360;28;20227;-86
2022/06/02 11:17:15;;;;;;;2.63;1.70;;;;;;;;;;4965516;28;20199;-86
2022/06/02 11:20:56;;;;;;;1.35;1.20;;;;;;;;;;4979463;28;20192;-84
2022/06/02 11:24:21;;;;;;;1.85;1.40;;;;;;;;;;4968343;28;20190;-87
2022/06/02 11:27:34;;;;;;;2.05;1.38;;;;;;;;;;4995123;28;20195;-87
2022/06/02 11:30:53;;;;;;;2.22;1.60;;;;;;;;;;4961452;28;20195;-87
2022/06/02 11:34:16;;;;;;;3.50;1.30;;;;;;;;;;4981443;28;20195;-87
2022/06/02 11:37:36;;;;;;;3.38;1.40;;;;;;;;;;4964417;28;20196;-87
2022/06/02 11:40:49;;;;;;;3.35;1.40;;;;;;;;;;4967865;28;20186;-86
2022/06/02 11:43:59;;;;;;;3.63;1.45;;;;;;;;;;4994248;28;20191;-87
2022/06/02 11:47:22;;;;;;;3.00;1.55;;;;;;;;;;4965569;28;20191;-87
2022/06/02 11:50:53;;;;;;;2.42;1.45;;;;;;;;;;4970670;28;20191;-87
2022/06/02 11:54:17;;;;;;;2.72;1.67;;;;;;;;;;4965773;28;20196;-86
2022/06/02 11:57:47;;;;;;;1.92;1.48;;;;;;;;;;4973077;28;20195;-87
2022/06/02 12:01:13;;;;;;;2.35;1.48;;;;;;;;;;4954464;28;20293;-87
2022/06/02 12:04:48;;;;;;;7.43;1.92;;;;;;;;;;4953285;28;20183;-87
2022/06/02 12:08:06;;;;;;;2.42;1.30;;;;;;;;;;4963879;28;20188;-86
2022/06/02 12:11:19;;;;;;;3.72;1.42;;;;;;;;;;4970748;28;20202;-86
2022/06/02 12:14:41;;;;;;;1.40;1.23;;;;;;;;;;4991763;23;20235;-87
2022/06/02 12:18:12;;;;;;;2.95;1.50;;;;;;;;;;4960032;28;20192;-85
2022/06/02 12:21:39;;;;;;;5.07;1.63;;;;;;;;;;4960714;28;20191;-84
2022/06/02 12:24:52;;;;;;;1.92;1.58;;;;;;;;;;4951130;28;20223;-87
2022/06/02 12:28:25;;;;;;;4.40;1.60;;;;;;;;;;4956025;28;20188;-86
2022/06/02 12:32:10;;;;;;;3.78;1.60;;;;;;;;;;4936580;29;20181;-85
2022/06/02 12:35:39;;;;;;;2.15;1.50;;;;;;;;;;4936555;29;20220;-85
2022/06/02 12:39:14;;;;;;;2.05;1.60;;;;;;;;;;4936464;29;20188;-85
2022/06/02 12:42:53;;;;;;;2.15;1.70;;;;;;;;;;4936071;29;20189;-85
2022/06/02 12:46:30;;;;;;;3.15;1.48;;;;;;;;;;4936166;29;20184;-85
2022/06/02 12:49:37;;;;;;;4.03;1.70;;;;;;;;;;4947220;29;20631;-85
2022/06/02 12:52:59;;;;;;;3.25;1.60;;;;;;;;;;4936208;29;20207;-85
2022/06/02 12:56:41;;;;;;;4.70;1.52;;;;;;;;;;4946884;29;20216;-84
2022/06/02 12:59:45;;;;;;;1.52;1.33;;;;;;;;;;4924971;29;20188;-85
2022/06/02 13:03:05;;;;;;;2.60;1.50;;;;;;;;;;4946645;29;21903;-85
2022/06/02 13:06:31;;;;;;;2.80;1.40;;;;;;;;;;4925154;29;20620;-85
2022/06/02 13:09:59;;;;;;;2.70;1.65;;;;;;;;;;4925091;29;20185;-85
2022/06/02 13:13:21;;;;;;;3.40;1.52;;;;;;;;;;4935609;29;20231;-84
2022/06/02 13:16:53;;;;;;;2.45;1.33;;;;;;;;;;4935449;29;20212;-84
2022/06/02 13:20:07;;;;;;;1.88;1.25;;;;;;;;;;4924866;29;20197;-85
2022/06/02 13:23:36;;;;;;;2.75;1.35;;;;;;;;;;4935849;29;20224;-86
2022/06/02 13:27:03;;;;;;;2.42;1.40;;;;;;;;;;4925225;29;20184;-84
2022/06/02 13:30:35;;;;;;;4.95;1.30;;;;;;;;;;4935903;29;20181;-84
2022/06/02 13:34:01;;;;;;;4.68;1.40;;;;;;;;;;4925882;29;20216;-82
2022/06/02 13:37:14;;;;;;;1.77;1.55;;;;;;;;;;4946944;29;20213;-83
2022/06/02 13:40:23;;;;;;;2.80;1.25;;;;;;;;;;4925112;29;20180;-83
2022/06/02 13:44:07;;;;;;;3.15;1.40;;;;;;;;;;4936018;29;20224;-83
2022/06/02 13:47:17;;;;;;;1.67;1.35;;;;;;;;;;4928974;29;20189;-84
2022/06/02 13:50:47;;;;;;;2.85;1.35;;;;;;;;;;4939134;29;20185;-85
2022/06/02 13:57:47;;;;;;;2.97;1.33;;;;;;;;;;4939178;29;20173;-85
2022/06/02 14:01:19;;;;;;;1.83;1.30;;;;;;;;;;4939138;29;20181;-85
2022/06/02 14:04:42;;;;;;;1.63;1.50;;;;;;;;;;4939763;29;20600;-85
2022/06/02 14:07:49;;;;;;;2.35;1.10;;;;;;;;;;4961320;28;20192;-85
2022/06/02 14:11:03;;;;;;;2.50;1.20;;;;;;;;;;4962505;28;20194;-85
2022/06/02 14:14:22;;;;;;;2.15;1.35;;;;;;;;;;4954419;28;20238;-84
2022/06/02 14:17:49;;;;;;;3.03;1.23;;;;;;;;;;4955373;28;20176;-84
2022/06/02 14:21:26;;;;;;;1.77;1.20;;;;;;;;;;4968392;28;20536;-84
2022/06/02 14:24:52;;;;;;;2.80;1.60;;;;;;;;;;4941289;29;20224;-84
2022/06/02 14:28:18;;;;;;;4.85;1.50;;;;;;;;;;4947177;29;20515;-83
2022/06/02 14:31:36;;;;;;;3.33;1.27;;;;;;;;;;4954589;28;20652;-84
2022/06/02 14:35:02;;;;;;;2.20;1.55;;;;;;;;;;4946575;29;20226;-84
2022/06/02 14:38:27;;;;;;;1.40;1.20;;;;;;;;;;4938638;29;20181;-84
2022/06/02 14:41:47;;;;;;;1.65;1.48;;;;;;;;;;4949544;29;20528;-84
2022/06/02 14:44:59;;;;;;;2.35;1.23;;;;;;;;;;4949161;29;20224;-84
2022/06/02 14:48:22;;;;;;;1.70;1.27;;;;;;;;;;4949236;29;20188;-84
2022/06/02 14:51:33;;;;;;;3.95;1.35;;;;;;;;;;4967684;28;20196;-85
2022/06/02 14:55:15;;;;;;;5.28;1.35;;;;;;;;;;4946599;29;20215;-85
2022/06/02 14:58:29;;;;;;;2.15;1.40;;;;;;;;;;4962779;28;20195;-84
2022/06/02 15:02:06;;;;;;;1.85;1.30;;;;;;;;;;4965035;28;20273;-84
2022/06/02 15:05:41;;;;;;;1.77;1.40;;;;;;;;;;4953989;28;20530;-85
2022/06/02 15:09:17;;;;;;;3.30;1.30;;;;;;;;;;4958257;28;20646;-84
2022/06/02 15:12:42;;;;;;;2.78;1.77;;;;;;;;;;4982819;28;20207;-84
2022/06/02 15:16:08;;;;;;;2.08;1.10;;;;;;;;;;4937899;29;20217;-85
2022/06/02 15:19:39;;;;;;;3.95;1.58;;;;;;;;;;4926989;29;20185;-84
2022/06/02 15:23:17;;;;;;;3.10;1.65;;;;;;;;;;4935873;28;20199;-86
2022/06/02 15:26:34;;;;;;;3.20;1.77;;;;;;;;;;4964674;28;20646;-83
2022/06/02 15:29:58;;;;;;;1.88;1.40;;;;;;;;;;4957662;28;20192;-84
2022/06/02 15:33:20;;;;;;;2.33;1.40;;;;;;;;;;4975407;28;20219;-84
2022/06/02 15:37:01;;;;;;;2.58;1.30;;;;;;;;;;4962461;28;20215;-84
2022/06/02 15:40:11;;;;;;;1.20;1.10;;;;;;;;;;4959936;28;20198;-84
2022/06/02 15:43:52;;;;;;;3.20;1.42;;;;;;;;;;4951298;28;20225;-84
2022/06/02 15:47:34;;;;;;;1.48;1.25;;;;;;;;;;4915258;29;20195;-84
2022/06/02 15:51:03;;;;;;;1.40;1.30;;;;;;;;;;4952628;28;20189;-86
2022/06/02 15:54:22;;;;;;;2.67;1.50;;;;;;;;;;4953933;28;20220;-85
2022/06/02 15:58:15;;;;;;;3.65;1.40;;;;;;;;;;4953466;28;20208;-85
2022/06/02 16:01:49;;;;;;;2.17;1.30;;;;;;;;;;4970085;28;20561;-85
2022/06/02 16:05:15;;;;;;;4.47;1.40;;;;;;;;;;4948531;28;20660;-85
2022/06/02 16:08:50;;;;;;;4.05;1.40;;;;;;;;;;4949369;28;20194;-85
2022/06/02 16:12:31;;;;;;;2.85;1.70;;;;;;;;;;4955962;29;20193;-85
2022/06/02 16:15:47;;;;;;;2.58;1.60;;;;;;;;;;4961302;28;20195;-85
2022/06/02 16:19:06;;;;;;;1.40;1.30;;;;;;;;;;4958413;28;20190;-84
2022/06/02 16:22:28;;;;;;;3.28;1.38;;;;;;;;;;4975226;28;20192;-86
2022/06/02 16:26:08;;;;;;;2.63;1.40;;;;;;;;;;4950064;29;20191;-84
2022/06/02 16:29:56;;;;;;;1.95;1.35;;;;;;;;;;4946222;28;20196;-84
2022/06/02 16:33:37;;;;;;;3.20;1.60;;;;;;;;;;4960701;28;20226;-84
2022/06/02 16:37:06;;;;;;;2.77;1.40;;;;;;;;;;4966713;28;20207;-84
2022/06/02 16:40:27;;;;;;;2.53;1.47;;;;;;;;;;4963909;28;20192;-84
2022/06/02 16:43:56;;;;;;;2.87;1.70;;;;;;;;;;4963422;28;20224;-85
2022/06/02 16:47:09;;;;;;;3.93;1.20;;;;;;;;;;4946517;28;20185;-84
2022/06/02 16:50:51;;;;;;;3.13;1.60;;;;;;;;;;4933434;29;20195;-83
2022/06/02 16:54:23;;;;;;;3.37;1.83;;;;;;;;;;4954783;29;20220;-83
2022/06/02 16:57:41;;;;;;;4.17;1.60;;;;;;;;;;4958942;28;20243;-81
2022/06/02 17:01:30;;;;;;;2.77;1.57;;;;;;;;;;4974106;28;20635;-82
2022/06/02 17:04:42;;;;;;;2.90;1.87;;;;;;;;;;4962643;28;20226;-81
2022/06/02 17:08:13;;;;;;;7.63;2.70;;;;;;;;;;4925025;29;20628;-81
2022/06/02 17:11:23;;;;;;;5.27;2.40;;;;;;;;;;4946641;29;20191;-81
2022/06/02 17:14:38;;;;;;;3.77;1.80;;;;;;;;;;4946899;29;20231;-81
2022/06/02 17:18:00;;;;;;;2.17;1.57;;;;;;;;;;4973256;28;20223;-81
2022/06/02 17:21:26;;;;;;;2.97;1.90;;;;;;;;;;4985738;28;20196;-85
2022/06/02 17:24:48;;;;;;;4.10;1.80;;;;;;;;;;4947798;29;20225;-85
2022/06/02 17:28:29;;;;;;;6.07;1.67;;;;;;;;;;4925911;29;20180;-84
2022/06/02 17:31:45;;;;;;;2.37;1.60;;;;;;;;;;4935857;29;20180;-84
2022/06/02 17:35:25;;;;;;;3.30;1.60;;;;;;;;;;4954933;29;20219;-84
2022/06/02 17:38:52;;;;;;;12.43;2.83;;;;;;;;;;4925721;29;20180;-84
2022/06/02 17:42:35;;;;;;;7.17;1.90;;;;;;;;;;4936162;28;20547;-85
2022/06/02 17:46:16;;;;;;;4.13;1.80;;;;;;;;;;4947197;28;20187;-85
2022/06/02 17:49:45;;;;;;;4.03;1.90;;;;;;;;;;4949506;29;20195;-85
2022/06/02 17:53:02;;;;;;;3.80;1.90;;;;;;;;;;4939012;28;20534;-85
2022/06/02 17:56:31;;;;;;;3.97;1.83;;;;;;;;;;4944847;28;20196;-85
2022/06/02 18:00:03;;;;;;;2.47;2.10;;;;;;;;;;4946510;28;20645;-85
2022/06/02 18:03:44;;;;;;;6.30;2.03;;;;;;;;;;4945392;29;20582;-84
2022/06/02 18:06:55;;;;;;;3.00;1.80;;;;;;;;;;4961460;28;20199;-84
2022/06/02 18:10:29;;;;;;;4.73;1.90;;;;;;;;;;4962025;28;20198;-87
2022/06/02 18:13:55;;;;;;;8.93;1.97;;;;;;;;;;4961563;28;20235;-84
2022/06/02 18:17:27;;;;;;;3.13;1.70;;;;;;;;;;4996694;23;20242;-82
2022/06/02 18:21:03;;;;;;;2.23;1.80;;;;;;;;;;4983620;28;20518;-83
2022/06/02 18:24:10;;;;;;;3.70;1.70;;;;;;;;;;4984857;28;20191;-84
2022/06/02 18:27:56;;;;;;;2.10;1.90;;;;;;;;;;4985219;28;20218;-83
2022/06/02 18:31:17;;;;;;;3.33;1.90;;;;;;;;;;4980604;28;20190;-83
2022/06/02 18:34:33;;;;;;;2.07;1.87;;;;;;;;;;4983117;28;20195;-84
2022/06/02 18:37:44;;;;;;;3.03;2.40;;;;;;;;;;4969600;28;20206;-84
2022/06/02 18:41:14;;;;;;;5.27;2.10;;;;;;;;;;4994947;28;20202;-84
2022/06/02 18:44:26;;;;;;;2.00;1.70;;;;;;;;;;5006100;28;20179;-84
2022/06/02 18:47:39;;;;;;;2.37;1.90;;;;;;;;;;4993323;28;20175;-84
2022/06/02 18:51:02;;;;;;;3.40;1.80;;;;;;;;;;4995371;28;20179;-84
2022/06/02 18:54:25;;;;;;;2.60;1.90;;;;;;;;;;5006247;28;20178;-83
2022/06/02 18:58:03;;;;;;;4.63;1.93;;;;;;;;;;4992867;28;20206;-83
2022/06/02 19:01:26;;;;;;;2.23;2.03;;;;;;;;;;4986557;28;20194;-84
2022/06/02 19:05:10;;;;;;;2.13;1.93;;;;;;;;;;4995803;28;20186;-83
2022/06/02 19:15:35;;;;;;;2.38;2.17;;;;;;;;;;4938258;28;1067216;-84
2022/06/02 19:18:40;;;;;;;2.33;2.13;;;;;;;;;;4994097;28;20699;-83
2022/06/02 19:22:15;;;;;;;4.80;2.17;;;;;;;;;;4975779;28;20194;-84
2022/06/02 19:25:28;;;;;;;3.30;2.07;;;;;;;;;;4986422;28;20187;-84
2022/06/02 19:29:00;;;;;;;2.63;2.20;;;;;;;;;;4996106;28;20198;-83
2022/06/02 19:32:29;;;;;;;4.63;2.37;;;;;;;;;;4976112;28;20195;-84
2022/06/02 19:35:37;;;;;;;2.73;2.50;;;;;;;;;;4953876;28;20214;-83
2022/06/02 19:38:53;;;;;;;3.83;2.20;;;;;;;;;;4955964;28;20215;-83
2022/06/02 19:42:13;;;;;;;2.50;2.10;;;;;;;;;;4964152;28;20646;-83
2022/06/02 19:45:38;;;;;;;2.60;2.40;;;;;;;;;;4964438;28;20526;-84
2022/06/02 19:49:10;;;;;;;4.87;2.20;;;;;;;;;;4977651;28;20191;-83
2022/06/02 19:52:33;;;;;;;2.53;2.33;;;;;;;;;;4953272;28;20637;-83
2022/06/02 19:55:44;;;;;;;3.47;2.43;;;;;;;;;;4964783;28;20219;-83
2022/06/02 19:58:53;;;;;;;4.00;2.43;;;;;;;;;;4974633;28;20214;-84
2022/06/02 20:02:19;;;;;;;3.40;2.40;;;;;;;;;;4975495;28;20187;-84
2022/06/02 20:05:28;;;;;;;3.00;2.40;;;;;;;;;;4975340;28;20226;-83
2022/06/02 20:08:41;;;;;;;2.97;2.50;;;;;;;;;;4986812;28;20655;-83
2022/06/02 20:11:50;;;;;;;2.60;2.40;;;;;;;;;;4994496;28;20202;-83
2022/06/02 20:15:04;;;;;;;2.60;2.30;;;;;;;;;;4983464;28;20178;-83
2022/06/02 20:18:30;;;;;;;3.33;2.30;;;;;;;;;;4994698;28;20632;-83
2022/06/02 20:21:40;;;;;;;3.67;2.80;;;;;;;;;;4953202;28;20187;-83
2022/06/02 20:25:08;;;;;;;6.40;3.03;;;;;;;;;;4963564;28;20199;-84
2022/06/02 20:28:22;;;;;;;3.20;2.90;;;;;;;;;;4975131;28;20521;-83
2022/06/02 20:31:31;;;;;;;6.53;2.63;;;;;;;;;;4982258;28;20660;-83
2022/06/02 20:35:08;;;;;;;3.50;2.77;;;;;;;;;;4982882;28;20195;-83
2022/06/02 20:38:26;;;;;;;2.90;2.53;;;;;;;;;;4982910;28;20214;-83
2022/06/02 20:41:50;;;;;;;3.67;2.50;;;;;;;;;;4971853;28;20182;-84
2022/06/02 20:45:14;;;;;;;3.40;2.90;;;;;;;;;;4996160;28;20629;-84
2022/06/02 20:48:18;;;;;;;4.13;2.90;;;;;;;;;;4995584;28;20178;-84